createdAt,value
2018-07-23T00:00:47.274Z,91.00
2018-07-23T00:02:50.836Z,90.90
2018-07-23T00:04:54.382Z,90.90
2018-07-23T00:06:58.114Z,90.80
2018-07-23T00:11:04.935Z,90.80
2018-07-23T00:13:08.547Z,90.90
2018-07-23T00:15:12.115Z,90.80
2018-07-23T00:17:15.695Z,90.80
2018-07-23T00:19:19.364Z,91.00
2018-07-23T00:21:22.928Z,91.00
2018-07-23T00:23:26.490Z,91.10
2018-07-23T00:25:30.403Z,91.00
2018-07-23T00:27:34.099Z,91.20
2018-07-23T00:29:37.595Z,90.90
2018-07-23T00:31:41.121Z,90.90
2018-07-23T00:33:44.750Z,90.80
2018-07-23T00:35:48.335Z,90.80
2018-07-23T00:37:51.910Z,90.80
2018-07-23T00:39:55.434Z,91.00
2018-07-23T00:41:58.979Z,91.00
2018-07-23T00:44:02.522Z,91.00
2018-07-23T00:46:06.106Z,91.00
2018-07-23T00:48:09.695Z,90.80
2018-07-23T00:50:13.318Z,90.60
2018-07-23T00:52:16.970Z,90.50
2018-07-23T00:54:20.531Z,90.50
2018-07-23T00:56:24.078Z,90.50
2018-07-23T00:58:27.610Z,90.60
2018-07-23T01:00:31.138Z,90.70
2018-07-23T01:02:34.739Z,90.70
2018-07-23T01:04:38.282Z,90.70
2018-07-23T01:06:41.850Z,90.60
2018-07-23T01:08:45.399Z,90.80
2018-07-23T01:10:49.095Z,90.40
2018-07-23T01:12:52.695Z,90.30
2018-07-23T01:14:56.284Z,90.20
2018-07-23T01:16:59.836Z,90.20
2018-07-23T01:19:03.384Z,90.20
2018-07-23T01:21:07.088Z,90.10
2018-07-23T01:23:10.821Z,90.20
2018-07-23T01:25:14.414Z,90.10
2018-07-23T01:27:18.194Z,90.00
2018-07-23T01:29:21.776Z,90.10
2018-07-23T01:31:25.372Z,90.10
2018-07-23T01:35:32.179Z,90.20
2018-07-23T01:37:35.708Z,90.60
2018-07-23T01:39:39.239Z,90.40
2018-07-23T01:44:01.610Z,90.40
2018-07-23T01:46:05.256Z,90.60
2018-07-23T01:48:08.789Z,90.60
2018-07-23T01:50:12.367Z,90.60
2018-07-23T01:52:15.890Z,90.70
2018-07-23T01:54:19.426Z,90.70
2018-07-23T01:56:22.925Z,90.70
2018-07-23T01:58:26.478Z,90.70
2018-07-23T02:00:29.958Z,90.70
2018-07-23T02:02:33.503Z,90.80
2018-07-23T02:04:38.251Z,90.80
2018-07-23T02:06:41.851Z,90.90
2018-07-23T02:08:45.353Z,90.80
2018-07-23T02:10:48.886Z,90.80
2018-07-23T02:12:52.399Z,90.80
2018-07-23T02:14:55.984Z,91.30
2018-07-23T02:16:59.537Z,91.50
2018-07-23T02:21:06.347Z,91.70
2018-07-23T02:23:09.899Z,91.60
2018-07-23T02:25:13.435Z,91.40
2018-07-23T02:27:16.933Z,91.30
2018-07-23T02:29:20.495Z,91.30
2018-07-23T02:31:24.019Z,91.20
2018-07-23T02:33:27.543Z,91.10
2018-07-23T02:35:31.032Z,90.90
2018-07-23T02:37:34.585Z,90.80
2018-07-23T02:39:38.121Z,90.80
2018-07-23T02:41:41.583Z,90.90
2018-07-23T02:43:45.130Z,91.40
2018-07-23T02:45:48.871Z,92.00
2018-07-23T02:47:52.376Z,92.00
2018-07-23T02:51:59.104Z,91.60
2018-07-23T02:54:02.629Z,91.40
2018-07-23T02:56:06.220Z,91.30
2018-07-23T02:58:09.776Z,91.30
2018-07-23T03:00:13.369Z,91.40
2018-07-23T03:02:16.938Z,91.40
2018-07-23T03:04:20.431Z,91.50
2018-07-23T03:06:24.947Z,91.40
2018-07-23T03:08:28.479Z,91.20
2018-07-23T03:10:32.156Z,91.30
2018-07-23T03:12:35.913Z,91.30
2018-07-23T03:14:39.415Z,91.20
2018-07-23T03:16:42.910Z,91.20
2018-07-23T03:18:46.403Z,91.40
2018-07-23T03:20:49.881Z,91.30
2018-07-23T03:22:53.408Z,91.60
2018-07-23T03:24:56.927Z,91.70
2018-07-23T03:27:00.516Z,92.20
2018-07-23T03:29:10.889Z,92.50
2018-07-23T03:31:14.364Z,92.80
2018-07-23T03:33:18.051Z,93.00
2018-07-23T03:35:21.624Z,92.70
2018-07-23T03:37:25.351Z,92.50
2018-07-23T03:39:28.903Z,92.40
2018-07-23T03:41:32.422Z,92.20
2018-07-23T03:43:35.940Z,92.10
2018-07-23T03:45:39.435Z,92.00
2018-07-23T03:47:42.918Z,91.90
2018-07-23T03:49:46.488Z,91.60
2018-07-23T03:51:56.514Z,91.50
2018-07-23T03:54:00.032Z,91.30
2018-07-23T03:56:03.518Z,91.20
2018-07-23T03:58:07.092Z,91.20
2018-07-23T04:00:10.628Z,91.20
2018-07-23T04:02:14.345Z,91.20
2018-07-23T04:04:24.524Z,91.10
2018-07-23T04:06:28.179Z,91.10
2018-07-23T04:08:31.742Z,91.30
2018-07-23T04:10:35.328Z,91.00
2018-07-23T04:12:38.845Z,91.30
2018-07-23T04:14:42.740Z,91.20
2018-07-23T04:16:46.207Z,91.30
2018-07-23T04:18:49.694Z,92.10
2018-07-23T04:20:53.295Z,91.90
2018-07-23T04:22:56.913Z,92.00
2018-07-23T04:25:00.453Z,92.00
2018-07-23T04:27:03.995Z,92.00
2018-07-23T04:29:07.503Z,92.00
2018-07-23T04:31:10.995Z,92.10
2018-07-23T04:33:14.490Z,91.90
2018-07-23T04:35:18.031Z,92.20
2018-07-23T04:37:21.574Z,92.90
2018-07-23T04:39:25.117Z,93.10
2018-07-23T04:41:28.613Z,93.40
2018-07-23T04:43:32.226Z,93.60
2018-07-23T04:45:35.691Z,93.50
2018-07-23T04:47:39.368Z,94.00
2018-07-23T04:49:42.871Z,94.10
2018-07-23T04:51:46.388Z,94.40
2018-07-23T04:53:49.883Z,94.90
2018-07-23T04:55:53.409Z,94.70
2018-07-23T04:57:56.959Z,94.10
2018-07-23T05:00:00.933Z,94.00
2018-07-23T05:02:04.495Z,94.10
2018-07-23T05:04:08.041Z,94.90
2018-07-23T05:06:11.544Z,93.90
2018-07-23T05:08:21.913Z,93.70
2018-07-23T05:10:25.399Z,93.50
2018-07-23T05:12:28.893Z,93.10
2018-07-23T05:14:32.443Z,92.60
2018-07-23T05:16:36.027Z,92.40
2018-07-23T05:18:39.543Z,92.30
2018-07-23T05:20:43.076Z,93.00
2018-07-23T05:22:46.627Z,93.10
2018-07-23T05:24:50.249Z,93.60
2018-07-23T05:26:53.931Z,93.80
2018-07-23T05:28:57.471Z,94.70
2018-07-23T05:31:01.026Z,94.10
2018-07-23T05:33:04.617Z,93.50
2018-07-23T05:35:08.221Z,92.90
2018-07-23T05:37:11.783Z,92.40
2018-07-23T05:39:15.325Z,92.40
2018-07-23T05:41:18.886Z,92.50
2018-07-23T05:43:22.554Z,92.60
2018-07-23T05:45:26.167Z,92.50
2018-07-23T05:47:29.637Z,92.30
2018-07-23T05:51:36.545Z,92.00
2018-07-23T05:53:40.129Z,91.80
2018-07-23T05:55:43.623Z,91.60
2018-07-23T05:57:47.166Z,91.80
2018-07-23T05:59:50.580Z,91.40
2018-07-23T06:01:54.070Z,91.60
2018-07-23T06:03:57.708Z,91.70
2018-07-23T06:06:01.200Z,91.50
2018-07-23T06:08:04.871Z,92.20
2018-07-23T06:10:08.444Z,92.50
2018-07-23T06:12:12.244Z,92.40
2018-07-23T06:14:15.959Z,92.10
2018-07-23T06:16:19.537Z,91.90
2018-07-23T06:18:23.066Z,91.40
2018-07-23T06:20:26.706Z,91.60
2018-07-23T06:22:30.205Z,91.60
2018-07-23T06:24:33.854Z,91.40
2018-07-23T06:26:37.381Z,91.30
2018-07-23T06:28:40.935Z,91.20
2018-07-23T06:30:44.474Z,91.20
2018-07-23T06:32:48.011Z,91.50
2018-07-23T06:34:51.572Z,91.90
2018-07-23T06:36:55.067Z,92.40
2018-07-23T06:38:58.560Z,92.20
2018-07-23T06:41:02.099Z,92.20
2018-07-23T06:43:05.839Z,91.80
2018-07-23T06:47:12.646Z,91.20
2018-07-23T06:49:16.215Z,91.00
2018-07-23T06:51:19.762Z,91.00
2018-07-23T06:53:23.350Z,91.10
2018-07-23T06:55:26.852Z,91.10
2018-07-23T06:57:30.433Z,92.10
2018-07-23T06:59:34.202Z,92.00
2018-07-23T07:01:44.103Z,91.60
2018-07-23T07:03:47.612Z,91.90
2018-07-23T07:05:51.116Z,91.60
2018-07-23T07:07:54.613Z,91.60
2018-07-23T07:09:58.132Z,91.70
2018-07-23T07:12:01.794Z,92.00
2018-07-23T07:14:05.536Z,92.00
2018-07-23T07:16:09.042Z,92.20
2018-07-23T07:18:12.629Z,91.80
2018-07-23T07:20:16.274Z,91.10
2018-07-23T07:22:19.780Z,91.10
2018-07-23T07:24:23.374Z,91.60
2018-07-23T07:26:26.995Z,91.10
2018-07-23T07:28:30.467Z,91.30
2018-07-23T07:30:34.077Z,91.30
2018-07-23T07:32:37.642Z,90.80
2018-07-23T07:34:41.297Z,91.00
2018-07-23T07:36:44.736Z,90.30
2018-07-23T07:38:48.233Z,90.50
2018-07-23T07:40:51.775Z,91.30
2018-07-23T07:42:55.316Z,91.80
2018-07-23T07:44:58.854Z,91.30
2018-07-23T07:47:02.367Z,91.00
2018-07-23T07:49:06.054Z,90.90
2018-07-23T07:51:09.691Z,90.60
2018-07-23T07:57:19.743Z,89.70
2018-07-23T07:59:23.379Z,89.70
2018-07-23T08:01:27.000Z,89.00
2018-07-23T08:03:30.682Z,89.10
2018-07-23T08:05:34.219Z,88.80
2018-07-23T08:07:37.824Z,87.70
2018-07-23T08:09:41.329Z,88.30
2018-07-23T08:11:44.892Z,87.70
2018-07-23T08:13:48.453Z,86.80
2018-07-23T08:15:52.011Z,85.30
2018-07-23T08:17:55.549Z,86.10
2018-07-23T08:19:59.023Z,86.90
2018-07-23T08:22:02.687Z,87.90
2018-07-23T08:24:06.316Z,87.80
2018-07-23T08:26:09.961Z,88.10
2018-07-23T08:28:13.480Z,89.30
2018-07-23T08:30:17.105Z,88.50
2018-07-23T08:32:20.704Z,87.10
2018-07-23T08:34:24.155Z,86.70
2018-07-23T08:36:27.707Z,88.30
2018-07-23T08:38:31.271Z,87.20
2018-07-23T08:40:34.805Z,84.80
2018-07-23T08:42:38.398Z,84.20
2018-07-23T08:44:41.890Z,83.70
2018-07-23T08:46:45.382Z,82.80
2018-07-23T08:48:49.191Z,81.60
2018-07-23T08:52:56.006Z,83.40
2018-07-23T08:54:59.608Z,83.10
2018-07-23T08:57:03.100Z,80.70
2018-07-23T08:59:06.787Z,79.70
2018-07-23T09:01:10.459Z,78.70
2018-07-23T09:03:14.050Z,77.20
2018-07-23T09:05:17.539Z,78.00
2018-07-23T09:07:21.010Z,76.70
2018-07-23T09:09:24.508Z,76.30
2018-07-23T09:11:28.102Z,76.20
2018-07-23T09:13:31.626Z,77.70
2018-07-23T09:15:35.135Z,77.10
2018-07-23T09:17:38.671Z,76.50
2018-07-23T09:19:42.191Z,75.40
2018-07-23T09:21:45.791Z,74.80
2018-07-23T09:23:49.354Z,74.30
2018-07-23T09:25:53.147Z,73.00
2018-07-23T09:27:56.646Z,73.40
2018-07-23T09:30:00.162Z,73.10
2018-07-23T09:32:03.645Z,74.70
2018-07-23T09:34:07.126Z,74.60
2018-07-23T09:36:10.715Z,75.80
2018-07-23T09:38:14.243Z,73.10
2018-07-23T09:40:17.862Z,72.00
2018-07-23T09:42:21.603Z,72.80
2018-07-23T09:44:25.096Z,71.80
2018-07-23T09:46:28.627Z,70.90
2018-07-23T09:48:32.101Z,69.80
2018-07-23T09:50:35.657Z,67.50
2018-07-23T09:52:39.255Z,67.80
2018-07-23T09:54:42.713Z,68.00
2018-07-23T09:56:46.245Z,68.00
2018-07-23T09:58:49.757Z,68.30
2018-07-23T10:00:57.944Z,69.30
2018-07-23T10:03:01.474Z,70.00
2018-07-23T10:05:04.951Z,69.80
2018-07-23T10:07:08.588Z,71.80
2018-07-23T10:09:12.446Z,73.20
2018-07-23T10:11:15.947Z,71.90
2018-07-23T10:13:19.613Z,68.20
2018-07-23T10:15:23.121Z,69.30
2018-07-23T10:17:26.631Z,69.40
2018-07-23T10:19:30.111Z,68.70
2018-07-23T10:21:33.747Z,68.50
2018-07-23T10:23:37.272Z,69.50
2018-07-23T10:25:40.988Z,70.70
2018-07-23T10:27:44.520Z,69.50
2018-07-23T10:29:47.998Z,70.40
2018-07-23T10:31:51.522Z,68.30
2018-07-23T10:35:58.368Z,68.00
2018-07-23T10:38:01.891Z,64.40
2018-07-23T10:40:05.439Z,65.00
2018-07-23T10:42:08.987Z,64.30
2018-07-23T10:44:12.504Z,64.20
2018-07-23T10:46:15.982Z,66.00
2018-07-23T10:48:19.519Z,64.90
2018-07-23T10:50:22.998Z,64.60
2018-07-23T10:52:26.667Z,65.70
2018-07-23T10:54:30.191Z,64.00
2018-07-23T10:56:33.710Z,66.40
2018-07-23T10:58:37.236Z,65.50
2018-07-23T11:00:40.782Z,65.90
2018-07-23T11:02:44.394Z,65.90
2018-07-23T11:04:47.906Z,65.60
2018-07-23T11:06:51.504Z,64.80
2018-07-23T11:08:54.992Z,65.10
2018-07-23T11:10:58.504Z,65.70
2018-07-23T11:13:02.008Z,63.90
2018-07-23T11:15:06.683Z,63.40
2018-07-23T11:17:10.339Z,63.70
2018-07-23T11:19:14.025Z,65.40
2018-07-23T11:21:17.528Z,62.60
2018-07-23T11:23:21.144Z,63.20
2018-07-23T11:25:39.088Z,63.10
2018-07-23T11:27:28.197Z,63.50
2018-07-23T11:29:31.732Z,62.30
2018-07-23T11:31:35.155Z,63.60
2018-07-23T11:33:38.791Z,61.90
2018-07-23T11:35:42.239Z,61.10
2018-07-23T11:37:45.827Z,60.10
2018-07-23T11:39:49.287Z,60.90
2018-07-23T11:41:52.832Z,60.20
2018-07-23T11:43:56.375Z,60.50
2018-07-23T11:45:59.999Z,60.20
2018-07-23T11:48:03.540Z,61.80
2018-07-23T11:50:07.131Z,63.20
2018-07-23T11:52:14.363Z,63.20
2018-07-23T11:54:14.171Z,62.50
2018-07-23T11:56:17.659Z,63.80
2018-07-23T11:58:21.259Z,66.40
2018-07-23T12:00:24.831Z,66.20
2018-07-23T12:02:28.363Z,66.40
2018-07-23T12:04:31.970Z,64.30
2018-07-23T12:10:41.868Z,63.50
2018-07-23T12:12:45.378Z,62.90
2018-07-23T12:14:48.932Z,62.50
2018-07-23T12:16:52.417Z,63.50
2018-07-23T12:18:56.089Z,61.20
2018-07-23T12:20:59.706Z,61.70
2018-07-23T12:23:03.332Z,63.50
2018-07-23T12:25:06.859Z,61.90
2018-07-23T12:27:10.359Z,62.40
2018-07-23T12:29:13.874Z,62.20
2018-07-23T12:31:17.467Z,63.80
2018-07-23T12:33:20.985Z,63.70
2018-07-23T12:35:24.787Z,61.30
2018-07-23T12:37:28.396Z,61.30
2018-07-23T12:39:31.987Z,60.50
2018-07-23T12:41:35.510Z,60.40
2018-07-23T12:43:39.048Z,63.80
2018-07-23T12:45:42.533Z,61.40
2018-07-23T12:47:46.233Z,59.90
2018-07-23T12:49:49.755Z,60.80
2018-07-23T12:51:53.234Z,58.30
2018-07-23T12:53:56.794Z,59.10
2018-07-23T12:56:00.328Z,57.70
2018-07-23T12:58:03.897Z,58.50
2018-07-23T13:00:07.561Z,59.30
2018-07-23T13:02:11.042Z,58.90
2018-07-23T13:04:14.613Z,57.80
2018-07-23T13:06:18.166Z,59.30
2018-07-23T13:08:21.747Z,62.30
2018-07-23T13:10:25.327Z,63.00
2018-07-23T13:12:29.214Z,64.00
2018-07-23T13:14:32.847Z,64.70
2018-07-23T13:16:36.498Z,63.30
2018-07-23T13:18:40.119Z,63.90
2018-07-23T13:20:43.704Z,62.80
2018-07-23T13:22:47.917Z,62.20
2018-07-23T13:24:51.635Z,61.00
2018-07-23T13:26:55.267Z,60.40
2018-07-23T13:28:58.800Z,59.20
2018-07-23T13:31:02.383Z,61.50
2018-07-23T13:33:05.872Z,62.80
2018-07-23T13:35:09.454Z,64.00
2018-07-23T13:37:12.969Z,65.60
2018-07-23T13:39:16.487Z,63.90
2018-07-23T13:41:20.133Z,66.90
2018-07-23T13:43:24.147Z,69.70
2018-07-23T13:45:27.692Z,71.30
2018-07-23T13:47:31.228Z,68.20
2018-07-23T13:49:34.848Z,69.50
2018-07-23T13:51:38.395Z,68.20
2018-07-23T13:53:41.990Z,67.60
2018-07-23T13:55:45.460Z,66.20
2018-07-23T13:57:48.995Z,66.20
2018-07-23T13:59:52.534Z,65.60
2018-07-23T14:01:56.199Z,64.50
2018-07-23T14:03:59.808Z,64.80
2018-07-23T14:06:03.422Z,61.80
2018-07-23T14:08:06.943Z,62.90
2018-07-23T14:10:10.488Z,62.60
2018-07-23T14:12:14.039Z,61.80
2018-07-23T14:14:17.618Z,60.40
2018-07-23T14:16:21.174Z,59.50
2018-07-23T14:18:24.719Z,59.20
2018-07-23T14:20:28.521Z,58.90
2018-07-23T14:22:32.057Z,59.30
2018-07-23T14:24:35.584Z,59.30
2018-07-23T14:26:39.140Z,58.50
2018-07-23T14:28:42.691Z,59.00
2018-07-23T14:32:50.191Z,59.70
2018-07-23T14:34:53.779Z,60.50
2018-07-23T14:36:57.354Z,63.50
2018-07-23T14:39:00.883Z,65.80
2018-07-23T14:41:04.415Z,68.30
2018-07-23T14:43:07.975Z,70.20
2018-07-23T14:45:11.651Z,69.80
2018-07-23T14:47:15.588Z,70.40
2018-07-23T14:49:19.221Z,69.50
2018-07-23T14:51:22.900Z,68.70
2018-07-23T14:53:26.391Z,68.60
2018-07-23T14:55:29.983Z,68.80
2018-07-23T14:57:33.560Z,68.90
2018-07-23T14:59:37.136Z,69.40
2018-07-23T15:01:40.694Z,69.90
2018-07-23T15:03:44.164Z,70.60
2018-07-23T15:05:48.023Z,70.60
2018-07-23T15:07:51.575Z,73.60
2018-07-23T15:09:55.200Z,77.30
2018-07-23T15:11:58.702Z,80.70
2018-07-23T15:14:02.256Z,82.80
2018-07-23T15:16:05.926Z,83.50
2018-07-23T15:18:09.443Z,86.40
2018-07-23T15:22:16.118Z,88.50
2018-07-23T15:24:19.654Z,86.40
2018-07-23T15:26:23.202Z,87.10
2018-07-23T15:28:26.714Z,85.30
2018-07-23T15:30:30.259Z,84.30
2018-07-23T15:32:33.849Z,84.20
2018-07-23T15:34:37.293Z,84.00
2018-07-23T15:36:40.751Z,85.30
2018-07-23T15:38:44.299Z,87.20
2018-07-23T15:40:47.822Z,89.60
2018-07-23T15:42:51.472Z,90.10
2018-07-23T15:44:55.295Z,88.40
2018-07-23T15:46:58.624Z,89.30
2018-07-23T15:49:02.254Z,90.60
2018-07-23T15:51:05.810Z,91.40
2018-07-23T15:53:09.384Z,90.80
2018-07-23T15:55:12.902Z,92.10
2018-07-23T15:57:16.378Z,91.70
2018-07-23T15:59:19.904Z,91.70
2018-07-23T16:01:23.527Z,91.60
2018-07-23T16:03:27.075Z,91.10
2018-07-23T16:05:30.743Z,90.90
2018-07-23T16:07:34.348Z,91.70
2018-07-23T16:09:37.843Z,91.20
2018-07-23T16:11:41.556Z,91.50
2018-07-23T16:13:45.147Z,91.10
2018-07-23T16:15:48.673Z,90.60
2018-07-23T16:17:52.252Z,90.70
2018-07-23T16:19:55.788Z,86.50
2018-07-23T16:21:59.380Z,83.20
2018-07-23T16:24:02.852Z,82.20
2018-07-23T16:26:06.431Z,82.80
2018-07-23T16:28:10.057Z,83.00
2018-07-23T16:30:13.603Z,83.60
2018-07-23T16:32:17.143Z,85.20
2018-07-23T16:34:20.664Z,87.70
2018-07-23T16:36:24.154Z,88.50
2018-07-23T16:38:27.687Z,89.70
2018-07-23T16:40:31.187Z,89.40
2018-07-23T16:42:34.738Z,88.50
2018-07-23T16:44:38.244Z,88.60
2018-07-23T16:46:41.913Z,88.20
2018-07-23T16:48:45.406Z,89.00
2018-07-23T16:50:48.979Z,88.20
2018-07-23T16:52:52.470Z,87.10
2018-07-23T16:54:56.029Z,85.30
2018-07-23T16:56:59.678Z,87.20
2018-07-23T16:59:03.155Z,87.80
2018-07-23T17:01:06.859Z,88.50
2018-07-23T17:03:10.397Z,88.40
2018-07-23T17:05:13.906Z,86.40
2018-07-23T17:07:17.432Z,87.60
2018-07-23T17:09:20.898Z,87.80
2018-07-23T17:11:24.517Z,88.30
2018-07-23T17:13:28.096Z,88.20
2018-07-23T17:15:31.631Z,88.10
2018-07-23T17:17:35.168Z,87.30
2018-07-23T17:19:38.716Z,87.40
2018-07-23T17:21:42.271Z,88.60
2018-07-23T17:23:45.814Z,90.20
2018-07-23T17:25:56.067Z,89.40
2018-07-23T17:27:59.583Z,88.50
2018-07-23T17:30:03.128Z,88.90
2018-07-23T17:32:06.668Z,87.90
2018-07-23T17:34:10.212Z,87.40
2018-07-23T17:36:13.825Z,87.10
2018-07-23T17:38:17.363Z,86.90
2018-07-23T17:40:20.908Z,86.00
2018-07-23T17:42:24.488Z,85.30
2018-07-23T17:44:27.963Z,86.90
2018-07-23T17:46:31.505Z,86.90
2018-07-23T17:48:35.057Z,85.20
2018-07-23T17:50:38.640Z,84.90
2018-07-23T17:52:42.214Z,85.00
2018-07-23T17:54:45.760Z,85.50
2018-07-23T17:56:49.538Z,86.60
2018-07-23T17:58:53.164Z,85.50
2018-07-23T18:00:56.694Z,86.80
2018-07-23T18:03:00.284Z,87.70
2018-07-23T18:05:03.901Z,86.40
2018-07-23T18:07:07.545Z,86.50
2018-07-23T18:09:12.640Z,86.50
2018-07-23T18:11:16.307Z,86.60
2018-07-23T18:13:19.851Z,87.60
2018-07-23T18:15:23.382Z,87.40
2018-07-23T18:17:26.938Z,87.10
2018-07-23T18:19:30.451Z,87.80
2018-07-23T18:21:33.975Z,89.10
2018-07-23T18:23:37.608Z,89.50
2018-07-23T18:25:41.303Z,89.70
2018-07-23T18:27:44.919Z,88.20
2018-07-23T18:29:48.472Z,88.60
2018-07-23T18:31:52.003Z,88.10
2018-07-23T18:33:55.662Z,87.90
2018-07-23T18:35:59.192Z,87.20
2018-07-23T18:38:02.812Z,87.90
2018-07-23T18:40:06.379Z,87.80
2018-07-23T18:42:10.005Z,88.30
2018-07-23T18:44:13.558Z,88.00
2018-07-23T18:46:17.315Z,87.70
2018-07-23T18:49:43.114Z,87.90
2018-07-23T18:51:51.967Z,88.30
2018-07-23T18:53:55.483Z,89.60
2018-07-23T18:55:59.102Z,90.20
2018-07-23T18:58:02.699Z,90.30
2018-07-23T19:00:06.663Z,90.60
2018-07-23T19:02:11.639Z,90.60
2018-07-23T19:04:15.128Z,90.70
2018-07-23T19:06:18.701Z,90.40
2018-07-23T19:08:22.261Z,90.00
2018-07-23T19:10:25.792Z,89.50
2018-07-23T19:12:29.366Z,89.00
2018-07-23T19:16:36.258Z,88.80
2018-07-23T19:18:39.828Z,90.00
2018-07-23T19:20:43.362Z,90.30
2018-07-23T19:22:46.935Z,90.30
2018-07-23T19:24:50.663Z,90.50
2018-07-23T19:26:54.351Z,91.00
2018-07-23T19:28:58.082Z,91.10
2018-07-23T19:31:01.611Z,91.10
2018-07-23T19:33:05.256Z,91.10
2018-07-23T19:35:08.774Z,91.10
2018-07-23T19:37:12.407Z,90.80
2018-07-23T19:39:17.348Z,90.80
2018-07-23T19:41:20.947Z,90.70
2018-07-23T19:43:24.563Z,90.60
2018-07-23T19:45:28.102Z,90.50
2018-07-23T19:47:31.688Z,90.20
2018-07-23T19:49:35.283Z,90.10
2018-07-23T19:51:38.861Z,90.10
2018-07-23T19:53:42.486Z,90.00
2018-07-23T19:55:45.999Z,90.20
2018-07-23T19:57:49.656Z,90.80
2018-07-23T19:59:53.266Z,90.90
2018-07-23T20:01:56.778Z,91.00
2018-07-23T20:04:00.381Z,91.20
2018-07-23T20:06:04.020Z,91.40
2018-07-23T20:10:11.141Z,91.30
2018-07-23T20:12:14.768Z,91.20
2018-07-23T20:14:18.342Z,91.20
2018-07-23T20:16:21.949Z,91.30
2018-07-23T20:18:25.559Z,91.30
2018-07-23T20:20:29.202Z,91.30
2018-07-23T20:22:32.838Z,91.20
2018-07-23T20:24:36.572Z,91.20
2018-07-23T20:26:40.141Z,91.00
2018-07-23T20:28:43.742Z,91.00
2018-07-23T20:30:47.281Z,91.10
2018-07-23T20:32:50.831Z,91.40
2018-07-23T20:34:54.355Z,91.00
2018-07-23T20:36:57.862Z,90.70
2018-07-23T20:39:01.557Z,90.60
2018-07-23T20:41:05.063Z,90.40
2018-07-23T20:43:08.728Z,90.40
2018-07-23T20:45:12.674Z,90.40
2018-07-23T20:47:16.240Z,90.40
2018-07-23T20:49:19.798Z,90.70
2018-07-23T20:51:23.361Z,91.00
2018-07-23T20:53:26.971Z,91.80
2018-07-23T20:55:30.457Z,91.90
2018-07-23T20:57:33.946Z,92.10
2018-07-23T20:59:37.504Z,92.40
2018-07-23T21:01:41.072Z,92.40
2018-07-23T21:03:44.642Z,92.10
2018-07-23T21:05:48.196Z,91.60
2018-07-23T21:07:51.893Z,90.70
2018-07-23T21:09:55.480Z,90.30
2018-07-23T21:11:58.968Z,90.30
2018-07-23T21:14:02.498Z,90.40
2018-07-23T21:16:06.027Z,90.20
2018-07-23T21:18:09.800Z,90.20
2018-07-23T21:20:13.414Z,90.10
2018-07-23T21:22:17.014Z,90.00
2018-07-23T21:24:20.470Z,89.80
2018-07-23T21:26:24.016Z,90.00
2018-07-23T21:28:27.631Z,89.90
2018-07-23T21:30:31.172Z,89.60
2018-07-23T21:32:34.763Z,89.30
2018-07-23T21:34:38.295Z,89.40
2018-07-23T21:36:41.963Z,89.70
2018-07-23T21:38:45.631Z,89.10
2018-07-23T21:40:49.154Z,89.10
2018-07-23T21:42:52.705Z,89.30
2018-07-23T21:44:56.263Z,90.00
2018-07-23T21:46:59.759Z,90.10
2018-07-23T21:49:03.354Z,90.10
2018-07-23T21:51:06.867Z,90.00
2018-07-23T21:53:10.372Z,90.20
2018-07-23T21:55:13.971Z,90.50
2018-07-23T21:57:17.480Z,90.70
2018-07-23T22:01:24.303Z,90.70
2018-07-23T22:03:27.991Z,90.70
2018-07-23T22:05:31.623Z,90.70
2018-07-23T22:07:35.284Z,90.70
2018-07-23T22:09:38.826Z,90.50
2018-07-23T22:11:42.348Z,90.50
2018-07-23T22:13:45.835Z,90.70
2018-07-23T22:15:49.371Z,90.70
2018-07-23T22:17:52.868Z,90.60
2018-07-23T22:19:56.475Z,90.40
2018-07-23T22:21:59.963Z,90.30
2018-07-23T22:24:03.486Z,90.30
2018-07-23T22:26:07.258Z,90.40
2018-07-23T22:28:10.903Z,90.30
2018-07-23T22:30:14.430Z,90.20
2018-07-23T22:32:18.373Z,90.20
2018-07-23T22:34:21.900Z,90.10
2018-07-23T22:36:25.737Z,90.00
2018-07-23T22:38:29.287Z,90.20
2018-07-23T22:40:33.168Z,90.40
2018-07-23T22:42:37.230Z,90.70
2018-07-23T22:44:40.867Z,90.80
2018-07-23T22:46:44.408Z,90.70
2018-07-23T22:48:47.887Z,90.80
2018-07-23T22:50:51.403Z,91.00
2018-07-23T22:52:54.887Z,91.00
2018-07-23T22:54:58.391Z,91.10
2018-07-23T22:57:02.001Z,91.30
2018-07-23T22:59:05.591Z,91.40
2018-07-23T23:01:09.143Z,91.30
2018-07-23T23:03:12.634Z,91.00
2018-07-23T23:05:16.183Z,90.90
2018-07-23T23:07:19.675Z,90.70
2018-07-23T23:09:23.251Z,90.80
2018-07-23T23:11:26.779Z,90.70
2018-07-23T23:13:30.282Z,90.40
2018-07-23T23:15:33.790Z,90.30
2018-07-23T23:17:37.283Z,90.20
2018-07-23T23:19:40.847Z,90.20
2018-07-23T23:21:44.400Z,90.20
2018-07-23T23:23:47.928Z,90.10
2018-07-23T23:25:51.584Z,90.20
2018-07-23T23:27:55.120Z,90.50
2018-07-23T23:29:58.987Z,90.70
2018-07-23T23:32:02.507Z,90.80
2018-07-23T23:34:06.278Z,91.00
2018-07-23T23:36:09.911Z,91.30
2018-07-23T23:38:13.406Z,91.20
2018-07-23T23:40:17.102Z,91.30
2018-07-23T23:42:20.606Z,91.10
2018-07-23T23:44:24.114Z,91.00
2018-07-23T23:46:27.627Z,90.90
2018-07-23T23:48:31.164Z,90.80
2018-07-23T23:50:34.683Z,90.60
2018-07-23T23:52:38.218Z,90.70
2018-07-23T23:54:41.783Z,90.70
2018-07-23T23:56:45.372Z,90.80
2018-07-23T23:58:48.878Z,90.80
